sensor_id;sensor_type;location;lat;lon;timestamp;pressure;altitude;pressure_sealevel;temperature;humidity
62833;BME280;48891;49.220;6.920;2022-09-09T00:00:22;98528.75;;;24.19;50.18
62833;BME280;48891;49.220;6.920;2022-09-09T00:03:08;98531.63;;;24.18;50.42
62833;BME280;48891;49.220;6.920;2022-09-09T00:06:00;98526.41;;;24.16;50.24
62833;BME280;48891;49.220;6.920;2022-09-09T00:08:58;98522.91;;;24.16;50.32
62833;BME280;48891;49.220;6.920;2022-09-09T00:11:32;98522.06;;;24.15;50.53
62833;BME280;48891;49.220;6.920;2022-09-09T00:14:03;98511.09;;;24.17;50.40
62833;BME280;48891;49.220;6.920;2022-09-09T00:16:36;98509.44;;;24.16;49.97
62833;BME280;48891;49.220;6.920;2022-09-09T00:19:14;98506.56;;;24.17;50.18
62833;BME280;48891;49.220;6.920;2022-09-09T00:22:06;98517.97;;;24.19;50.29
62833;BME280;48891;49.220;6.920;2022-09-09T00:24:38;98511.94;;;24.17;50.13
62833;BME280;48891;49.220;6.920;2022-09-09T00:27:11;98513.97;;;24.15;50.34
62833;BME280;48891;49.220;6.920;2022-09-09T00:29:44;98519.84;;;24.19;50.24
62833;BME280;48891;49.220;6.920;2022-09-09T00:32:16;98499.75;;;24.06;50.18
62833;BME280;48891;49.220;6.920;2022-09-09T00:34:49;98518.34;;;24.16;50.04
62833;BME280;48891;49.220;6.920;2022-09-09T00:37:16;98488.22;;;23.98;50.13
62833;BME280;48891;49.220;6.920;2022-09-09T00:39:45;98527.94;;;24.19;50.20
62833;BME280;48891;49.220;6.920;2022-09-09T00:42:21;98522.53;;;24.19;50.05
62833;BME280;48891;49.220;6.920;2022-09-09T00:47:46;98517.69;;;24.14;49.94
62833;BME280;48891;49.220;6.920;2022-09-09T00:55:28;98508.41;;;24.17;49.85
62833;BME280;48891;49.220;6.920;2022-09-09T00:57:58;98507.75;;;24.15;49.91
62833;BME280;48891;49.220;6.920;2022-09-09T01:00:29;98512.13;;;24.16;50.13
62833;BME280;48891;49.220;6.920;2022-09-09T01:11:02;98521.38;;;24.13;49.93
62833;BME280;48891;49.220;6.920;2022-09-09T01:13:33;98513.13;;;24.15;49.96
62833;BME280;48891;49.220;6.920;2022-09-09T01:16:01;98512.81;;;24.10;49.61
62833;BME280;48891;49.220;6.920;2022-09-09T01:18:30;98520.38;;;24.14;49.99
62833;BME280;48891;49.220;6.920;2022-09-09T01:21:25;98515.63;;;24.16;49.89
62833;BME280;48891;49.220;6.920;2022-09-09T01:26:45;98517.69;;;24.14;49.76
62833;BME280;48891;49.220;6.920;2022-09-09T01:29:14;98524.06;;;24.13;49.86
62833;BME280;48891;49.220;6.920;2022-09-09T01:34:16;98520.56;;;24.13;49.73
62833;BME280;48891;49.220;6.920;2022-09-09T01:36:46;98524.06;;;24.13;49.93
62833;BME280;48891;49.220;6.920;2022-09-09T01:39:13;98522.59;;;24.11;49.73
62833;BME280;48891;49.220;6.920;2022-09-09T01:41:39;98530.69;;;24.11;49.58
62833;BME280;48891;49.220;6.920;2022-09-09T01:44:05;98525.94;;;24.13;49.74
62833;BME280;48891;49.220;6.920;2022-09-09T01:46:31;98530.31;;;24.14;49.76
62833;BME280;48891;49.220;6.920;2022-09-09T01:48:57;98523.25;;;24.13;49.92
62833;BME280;48891;49.220;6.920;2022-09-09T01:51:24;98518.69;;;24.13;49.58
62833;BME280;48891;49.220;6.920;2022-09-09T01:53:49;98528.16;;;24.09;49.54
62833;BME280;48891;49.220;6.920;2022-09-09T01:59:14;98529.47;;;24.13;49.51
62833;BME280;48891;49.220;6.920;2022-09-09T02:02:19;98523.41;;;24.11;49.65
62833;BME280;48891;49.220;6.920;2022-09-09T02:04:58;98528.97;;;24.10;49.65
62833;BME280;48891;49.220;6.920;2022-09-09T02:07:34;98520.06;;;24.09;49.69
62833;BME280;48891;49.220;6.920;2022-09-09T02:12:35;98509.31;;;24.09;49.45
62833;BME280;48891;49.220;6.920;2022-09-09T02:15:04;98514.50;;;24.11;49.33
62833;BME280;48891;49.220;6.920;2022-09-09T02:17:36;98511.16;;;24.09;49.62
62833;BME280;48891;49.220;6.920;2022-09-09T02:20:12;98502.06;;;24.10;49.63
62833;BME280;48891;49.220;6.920;2022-09-09T02:22:41;98499.06;;;24.04;49.71
62833;BME280;48891;49.220;6.920;2022-09-09T02:25:10;98497.72;;;24.09;49.26
62833;BME280;48891;49.220;6.920;2022-09-09T02:27:37;98507.44;;;24.10;49.76
62833;BME280;48891;49.220;6.920;2022-09-09T02:30:04;98504.09;;;24.07;49.33
62833;BME280;48891;49.220;6.920;2022-09-09T02:32:32;98504.09;;;24.07;49.34
62833;BME280;48891;49.220;6.920;2022-09-09T02:35:20;98509.47;;;24.07;49.35
62833;BME280;48891;49.220;6.920;2022-09-09T02:37:48;98501.75;;;24.04;49.62
62833;BME280;48891;49.220;6.920;2022-09-09T02:40:15;98515.22;;;24.04;49.50
62833;BME280;48891;49.220;6.920;2022-09-09T02:42:44;98501.97;;;24.03;49.57
62833;BME280;48891;49.220;6.920;2022-09-09T02:45:12;98503.63;;;24.04;49.46
62833;BME280;48891;49.220;6.920;2022-09-09T02:50:15;98514.75;;;24.01;49.43
62833;BME280;48891;49.220;6.920;2022-09-09T02:52:51;98515.22;;;24.04;49.37
62833;BME280;48891;49.220;6.920;2022-09-09T02:55:35;98506.13;;;24.05;49.57
62833;BME280;48891;49.220;6.920;2022-09-09T02:58:04;98499.63;;;24.00;49.43
62833;BME280;48891;49.220;6.920;2022-09-09T03:00:31;98509.34;;;24.01;49.78
62833;BME280;48891;49.220;6.920;2022-09-09T03:02:56;98505.19;;;23.98;49.52
62833;BME280;48891;49.220;6.920;2022-09-09T03:05:22;98511.41;;;23.99;49.44
62833;BME280;48891;49.220;6.920;2022-09-09T03:07:47;98509.00;;;24.04;49.43
62833;BME280;48891;49.220;6.920;2022-09-09T03:10:12;98509.84;;;24.04;49.65
62833;BME280;48891;49.220;6.920;2022-09-09T03:12:37;98509.19;;;24.02;49.42
62833;BME280;48891;49.220;6.920;2022-09-09T03:15:03;98510.41;;;24.00;49.52
62833;BME280;48891;49.220;6.920;2022-09-09T03:17:28;98504.34;;;23.98;49.29
62833;BME280;48891;49.220;6.920;2022-09-09T03:19:53;98508.06;;;23.97;49.39
62833;BME280;48891;49.220;6.920;2022-09-09T03:22:19;98516.78;;;23.99;49.66
62833;BME280;48891;49.220;6.920;2022-09-09T03:24:44;98521.34;;;23.98;49.66
62833;BME280;48891;49.220;6.920;2022-09-09T03:27:09;98523.03;;;23.99;49.60
62833;BME280;48891;49.220;6.920;2022-09-09T03:29:34;98518.66;;;23.98;49.33
62833;BME280;48891;49.220;6.920;2022-09-09T03:31:59;98512.75;;;24.03;49.37
62833;BME280;48891;49.220;6.920;2022-09-09T03:34:25;98523.84;;;24.00;49.27
62833;BME280;48891;49.220;6.920;2022-09-09T03:36:50;98520.81;;;24.03;49.58
62833;BME280;48891;49.220;6.920;2022-09-09T03:39:15;98525.91;;;23.98;49.35
62833;BME280;48891;49.220;6.920;2022-09-09T03:41:40;98526.56;;;24.00;49.60
62833;BME280;48891;49.220;6.920;2022-09-09T03:44:05;98508.06;;;23.97;49.43
62833;BME280;48891;49.220;6.920;2022-09-09T03:46:31;98503.03;;;23.94;49.18
62833;BME280;48891;49.220;6.920;2022-09-09T03:48:56;98516.78;;;23.99;49.35
62833;BME280;48891;49.220;6.920;2022-09-09T03:51:21;98526.91;;;23.97;49.26
62833;BME280;48891;49.220;6.920;2022-09-09T03:53:46;98524.22;;;23.97;49.20
62833;BME280;48891;49.220;6.920;2022-09-09T03:56:12;98517.53;;;23.93;49.50
62833;BME280;48891;49.220;6.920;2022-09-09T03:58:37;98525.91;;;23.98;49.26
62833;BME280;48891;49.220;6.920;2022-09-09T04:01:03;98517.81;;;23.98;49.40
62833;BME280;48891;49.220;6.920;2022-09-09T04:03:29;98527.06;;;23.95;49.25
62833;BME280;48891;49.220;6.920;2022-09-09T04:05:56;98520.22;;;23.93;49.35
62833;BME280;48891;49.220;6.920;2022-09-09T04:08:24;98527.06;;;23.95;49.65
62833;BME280;48891;49.220;6.920;2022-09-09T04:10:49;98523.72;;;23.93;49.57
62833;BME280;48891;49.220;6.920;2022-09-09T04:13:16;98523.56;;;23.95;49.19
62833;BME280;48891;49.220;6.920;2022-09-09T04:15:42;98524.22;;;23.97;49.19
62833;BME280;48891;49.220;6.920;2022-09-09T04:18:07;98516.75;;;23.84;49.44
62833;BME280;48891;49.220;6.920;2022-09-09T04:20:33;98523.25;;;23.90;49.45
62833;BME280;48891;49.220;6.920;2022-09-09T04:22:58;98523.72;;;23.93;49.55
62833;BME280;48891;49.220;6.920;2022-09-09T04:25:23;98536.19;;;23.94;49.50
62833;BME280;48891;49.220;6.920;2022-09-09T04:27:54;98528.09;;;23.94;49.29
62833;BME280;48891;49.220;6.920;2022-09-09T04:30:19;98532.63;;;23.94;49.14
62833;BME280;48891;49.220;6.920;2022-09-09T04:32:44;98526.59;;;23.92;49.25
62833;BME280;48891;49.220;6.920;2022-09-09T04:35:09;98539.22;;;23.91;49.13
62833;BME280;48891;49.220;6.920;2022-09-09T04:37:35;98531.16;;;23.91;48.97
62833;BME280;48891;49.220;6.920;2022-09-09T04:40:00;98527.47;;;23.92;49.39
62833;BME280;48891;49.220;6.920;2022-09-09T04:42:25;98525.59;;;23.93;49.07
62833;BME280;48891;49.220;6.920;2022-09-09T04:44:50;98534.31;;;23.95;49.12
62833;BME280;48891;49.220;6.920;2022-09-09T04:47:16;98533.50;;;23.94;49.28
62833;BME280;48891;49.220;6.920;2022-09-09T04:49:41;98532.63;;;23.94;49.29
62833;BME280;48891;49.220;6.920;2022-09-09T04:52:06;98537.53;;;23.90;49.55
62833;BME280;48891;49.220;6.920;2022-09-09T04:54:31;98542.56;;;23.93;49.03
62833;BME280;48891;49.220;6.920;2022-09-09T04:56:56;98546.09;;;23.94;49.18
62833;BME280;48891;49.220;6.920;2022-09-09T04:59:22;98540.22;;;23.90;49.06
62833;BME280;48891;49.220;6.920;2022-09-09T05:01:48;98544.44;;;23.93;49.20
62833;BME280;48891;49.220;6.920;2022-09-09T05:04:13;98534.75;;;23.83;49.14
62833;BME280;48891;49.220;6.920;2022-09-09T05:06:38;98542.75;;;23.92;49.07
62833;BME280;48891;49.220;6.920;2022-09-09T05:09:04;98539.88;;;23.93;48.97
62833;BME280;48891;49.220;6.920;2022-09-09T05:11:30;98544.78;;;23.90;49.46
62833;BME280;48891;49.220;6.920;2022-09-09T05:13:56;98535.72;;;23.91;49.08
62833;BME280;48891;49.220;6.920;2022-09-09T05:16:21;98538.41;;;23.91;49.52
62833;BME280;48891;49.220;6.920;2022-09-09T05:18:47;98540.91;;;23.92;49.11
62833;BME280;48891;49.220;6.920;2022-09-09T05:21:14;98539.22;;;23.91;49.08
62833;BME280;48891;49.220;6.920;2022-09-09T05:23:39;98544.13;;;23.87;49.14
62833;BME280;48891;49.220;6.920;2022-09-09T05:26:05;98537.38;;;23.92;48.87
62833;BME280;48891;49.220;6.920;2022-09-09T05:28:34;98547.47;;;23.90;49.30
62833;BME280;48891;49.220;6.920;2022-09-09T05:31:01;98529.03;;;23.78;49.02
62833;BME280;48891;49.220;6.920;2022-09-09T05:33:27;98550.16;;;23.90;49.20
62833;BME280;48891;49.220;6.920;2022-09-09T05:36:00;98550.53;;;23.86;49.35
62833;BME280;48891;49.220;6.920;2022-09-09T05:38:26;98554.06;;;23.87;49.19
62833;BME280;48891;49.220;6.920;2022-09-09T05:40:52;98557.78;;;23.86;49.05
62833;BME280;48891;49.220;6.920;2022-09-09T05:43:18;98557.59;;;23.87;49.45
62833;BME280;48891;49.220;6.920;2022-09-09T05:45:44;98553.78;;;23.82;49.70
62833;BME280;48891;49.220;6.920;2022-09-09T05:48:09;98564.34;;;23.83;49.54
62833;BME280;48891;49.220;6.920;2022-09-09T05:50:34;98560.63;;;23.84;49.55
62833;BME280;48891;49.220;6.920;2022-09-09T05:52:59;98566.00;;;23.84;49.42
62833;BME280;48891;49.220;6.920;2022-09-09T05:55:24;98565.69;;;23.79;49.71
62833;BME280;48891;49.220;6.920;2022-09-09T05:57:50;98565.84;;;23.78;49.46
62833;BME280;48891;49.220;6.920;2022-09-09T06:00:15;98570.22;;;23.79;49.68
62833;BME280;48891;49.220;6.920;2022-09-09T06:02:40;98570.56;;;23.84;49.55
62833;BME280;48891;49.220;6.920;2022-09-09T06:05:06;98573.25;;;23.84;49.89
62833;BME280;48891;49.220;6.920;2022-09-09T06:07:31;98573.44;;;23.82;49.77
62833;BME280;48891;49.220;6.920;2022-09-09T06:09:56;98575.13;;;23.83;49.86
62833;BME280;48891;49.220;6.920;2022-09-09T06:12:21;98574.91;;;23.85;49.58
62833;BME280;48891;49.220;6.920;2022-09-09T06:14:46;98572.59;;;23.82;49.73
62833;BME280;48891;49.220;6.920;2022-09-09T06:17:12;98575.47;;;23.80;49.89
62833;BME280;48891;49.220;6.920;2022-09-09T06:19:37;98578.00;;;23.82;49.52
62833;BME280;48891;49.220;6.920;2022-09-09T06:22:02;98574.44;;;23.81;49.77
62833;BME280;48891;49.220;6.920;2022-09-09T06:24:27;98573.63;;;23.81;49.54
62833;BME280;48891;49.220;6.920;2022-09-09T06:26:53;98574.44;;;23.81;49.72
62833;BME280;48891;49.220;6.920;2022-09-09T06:29:18;98580.50;;;23.83;49.64
62833;BME280;48891;49.220;6.920;2022-09-09T06:31:43;98577.13;;;23.81;49.63
62833;BME280;48891;49.220;6.920;2022-09-09T06:34:08;98573.75;;;23.79;49.59
62833;BME280;48891;49.220;6.920;2022-09-09T06:36:36;98581.34;;;23.84;49.37
62833;BME280;48891;49.220;6.920;2022-09-09T06:39:02;98589.41;;;23.84;49.52
62833;BME280;48891;49.220;6.920;2022-09-09T06:41:30;98571.75;;;23.81;49.63
62833;BME280;48891;49.220;6.920;2022-09-09T06:43:55;98570.09;;;23.80;49.66
62833;BME280;48891;49.220;6.920;2022-09-09T06:46:23;98582.69;;;23.80;49.46
62833;BME280;48891;49.220;6.920;2022-09-09T06:48:48;98579.00;;;23.81;49.56
62833;BME280;48891;49.220;6.920;2022-09-09T06:53:41;98582.84;;;23.78;49.59
62833;BME280;48891;49.220;6.920;2022-09-09T06:58:35;98564.38;;;23.75;49.19
62833;BME280;48891;49.220;6.920;2022-09-09T07:01:06;98582.34;;;23.83;49.50
62833;BME280;48891;49.220;6.920;2022-09-09T07:03:32;98576.31;;;23.81;49.30
62833;BME280;48891;49.220;6.920;2022-09-09T07:05:58;98578.16;;;23.80;49.42
62833;BME280;48891;49.220;6.920;2022-09-09T07:08:23;98582.00;;;23.78;49.48
62833;BME280;48891;49.220;6.920;2022-09-09T07:10:49;98575.78;;;23.77;49.56
62833;BME280;48891;49.220;6.920;2022-09-09T07:13:14;98579.00;;;23.81;49.29
62833;BME280;48891;49.220;6.920;2022-09-09T07:15:39;98585.22;;;23.81;49.33
62833;BME280;48891;49.220;6.920;2022-09-09T07:18:04;98573.44;;;23.74;49.47
62833;BME280;48891;49.220;6.920;2022-09-09T07:20:29;98583.56;;;23.80;49.31
62833;BME280;48891;49.220;6.920;2022-09-09T07:22:55;98591.28;;;23.83;49.20
62833;BME280;48891;49.220;6.920;2022-09-09T07:25:20;98592.94;;;23.84;49.02
62833;BME280;48891;49.220;6.920;2022-09-09T07:27:45;98597.31;;;23.85;49.20
62833;BME280;48891;49.220;6.920;2022-09-09T07:30:11;98596.31;;;23.78;49.44
62833;BME280;48891;49.220;6.920;2022-09-09T07:32:36;98590.94;;;23.78;49.19
62833;BME280;48891;49.220;6.920;2022-09-09T07:35:01;98600.53;;;23.81;49.19
62833;BME280;48891;49.220;6.920;2022-09-09T07:37:26;98598.66;;;23.81;49.19
62833;BME280;48891;49.220;6.920;2022-09-09T07:39:52;98599.69;;;23.80;49.10
62833;BME280;48891;49.220;6.920;2022-09-09T07:42:17;98606.56;;;23.83;49.44
62833;BME280;48891;49.220;6.920;2022-09-09T07:44:42;98598.84;;;23.80;49.21
62833;BME280;48891;49.220;6.920;2022-09-09T07:47:07;98592.44;;;23.81;49.25
62833;BME280;48891;49.220;6.920;2022-09-09T07:49:33;98604.72;;;23.83;49.34
62833;BME280;48891;49.220;6.920;2022-09-09T07:51:58;98603.03;;;23.82;49.02
62833;BME280;48891;49.220;6.920;2022-09-09T07:54:24;98600.34;;;23.82;49.10
62833;BME280;48891;49.220;6.920;2022-09-09T07:56:50;98600.53;;;23.81;49.07
62833;BME280;48891;49.220;6.920;2022-09-09T07:59:16;98595.28;;;23.79;49.17
62833;BME280;48891;49.220;6.920;2022-09-09T08:01:43;98597.50;;;23.84;49.28
62833;BME280;48891;49.220;6.920;2022-09-09T08:04:12;98594.97;;;23.82;49.10
62833;BME280;48891;49.220;6.920;2022-09-09T08:06:39;98605.22;;;23.79;49.24
62833;BME280;48891;49.220;6.920;2022-09-09T08:09:06;98603.88;;;23.83;49.18
62833;BME280;48891;49.220;6.920;2022-09-09T08:11:32;98599.16;;;23.85;48.95
62833;BME280;48891;49.220;6.920;2022-09-09T08:13:57;98596.47;;;23.85;49.15
62833;BME280;48891;49.220;6.920;2022-09-09T08:16:25;98596.84;;;23.82;49.18
62833;BME280;48891;49.220;6.920;2022-09-09T08:18:51;98594.13;;;23.82;49.29
62833;BME280;48891;49.220;6.920;2022-09-09T08:21:20;98606.41;;;23.84;49.07
62833;BME280;48891;49.220;6.920;2022-09-09T08:23:47;98603.69;;;23.84;49.07
62833;BME280;48891;49.220;6.920;2022-09-09T08:26:23;98604.03;;;23.81;49.29
62833;BME280;48891;49.220;6.920;2022-09-09T08:28:50;98609.25;;;23.83;49.14
62833;BME280;48891;49.220;6.920;2022-09-09T08:31:21;98610.13;;;23.83;49.10
62833;BME280;48891;49.220;6.920;2022-09-09T08:33:47;98620.69;;;23.85;49.12
62833;BME280;48891;49.220;6.920;2022-09-09T08:36:15;98614.47;;;23.84;49.01
62833;BME280;48891;49.220;6.920;2022-09-09T08:38:42;98596.66;;;23.75;48.71
62833;BME280;48891;49.220;6.920;2022-09-09T08:41:25;98605.41;;;23.85;49.22
62833;BME280;48891;49.220;6.920;2022-09-09T08:54:53;98619.19;;;23.82;48.86
62833;BME280;48891;49.220;6.920;2022-09-09T08:57:24;98602.69;;;23.85;48.77
62833;BME280;48891;49.220;6.920;2022-09-09T08:59:50;98610.94;;;23.84;48.66
62833;BME280;48891;49.220;6.920;2022-09-09T09:02:41;98609.75;;;23.86;48.64
62833;BME280;48891;49.220;6.920;2022-09-09T09:05:24;98603.84;;;23.91;48.74
62833;BME280;48891;49.220;6.920;2022-09-09T09:10:47;98608.41;;;23.91;48.82
62833;BME280;48891;49.220;6.920;2022-09-09T09:13:15;98612.41;;;23.95;48.37
62833;BME280;48891;49.220;6.920;2022-09-09T09:15:42;98602.47;;;23.95;48.85
62833;BME280;48891;49.220;6.920;2022-09-09T09:18:11;98605.81;;;23.97;48.58
62833;BME280;48891;49.220;6.920;2022-09-09T09:21:04;98607.16;;;24.01;48.42
62833;BME280;48891;49.220;6.920;2022-09-09T09:23:40;98604.63;;;24.00;48.37
62833;BME280;48891;49.220;6.920;2022-09-09T09:26:09;98604.47;;;24.01;48.26
62833;BME280;48891;49.220;6.920;2022-09-09T09:28:36;98606.28;;;24.01;48.70
62833;BME280;48891;49.220;6.920;2022-09-09T09:31:05;98613.72;;;23.99;48.59
62833;BME280;48891;49.220;6.920;2022-09-09T09:33:57;98602.94;;;23.99;48.54
62833;BME280;48891;49.220;6.920;2022-09-09T09:36:34;98607.31;;;24.00;48.22
62833;BME280;48891;49.220;6.920;2022-09-09T09:39:01;98600.72;;;24.02;48.75
62833;BME280;48891;49.220;6.920;2022-09-09T09:43:55;98607.31;;;24.00;49.43
62833;BME280;48891;49.220;6.920;2022-09-09T09:46:25;98599.25;;;24.00;49.66
62833;BME280;48891;49.220;6.920;2022-09-09T09:49:02;98584.28;;;23.97;50.00
62833;BME280;48891;49.220;6.920;2022-09-09T09:51:29;98578.53;;;24.00;50.26
62833;BME280;48891;49.220;6.920;2022-09-09T09:54:05;98588.13;;;24.03;51.64
62833;BME280;48891;49.220;6.920;2022-09-09T09:56:33;98589.44;;;24.07;51.67
62833;BME280;48891;49.220;6.920;2022-09-09T09:58:58;98576.81;;;24.07;51.76
62833;BME280;48891;49.220;6.920;2022-09-09T10:01:29;98583.88;;;24.09;51.94
62833;BME280;48891;49.220;6.920;2022-09-09T10:03:59;98576.81;;;24.07;52.29
62833;BME280;48891;49.220;6.920;2022-09-09T10:06:36;98585.06;;;24.06;52.04
62833;BME280;48891;49.220;6.920;2022-09-09T10:09:03;98588.41;;;24.08;52.26
62833;BME280;48891;49.220;6.920;2022-09-09T10:11:44;98590.75;;;24.11;51.85
62833;BME280;48891;49.220;6.920;2022-09-09T10:14:21;98565.56;;;24.04;52.42
62833;BME280;48891;49.220;6.920;2022-09-09T10:19:29;98568.38;;;24.11;52.14
62833;BME280;48891;49.220;6.920;2022-09-09T10:25:15;98561.47;;;24.08;52.57
62833;BME280;48891;49.220;6.920;2022-09-09T10:30:18;98573.28;;;24.07;52.74
62833;BME280;48891;49.220;6.920;2022-09-09T10:35:40;98584.41;;;24.04;52.91
62833;BME280;48891;49.220;6.920;2022-09-09T10:38:47;98596.88;;;24.05;52.96
62833;BME280;48891;49.220;6.920;2022-09-09T10:41:22;98583.56;;;24.03;53.19
62833;BME280;48891;49.220;6.920;2022-09-09T10:52:59;98592.72;;;23.94;53.21
62833;BME280;48891;49.220;6.920;2022-09-09T10:55:37;98617.78;;;23.95;53.71
62833;BME280;48891;49.220;6.920;2022-09-09T10:58:05;98584.81;;;23.93;53.61
62833;BME280;48891;49.220;6.920;2022-09-09T11:00:38;98585.66;;;23.93;53.60
62833;BME280;48891;49.220;6.920;2022-09-09T11:03:05;98578.41;;;23.94;53.22
62833;BME280;48891;49.220;6.920;2022-09-09T11:05:39;98584.16;;;23.91;53.44
62833;BME280;48891;49.220;6.920;2022-09-09T11:08:12;98578.41;;;23.94;53.77
62833;BME280;48891;49.220;6.920;2022-09-09T11:11:06;98594.94;;;23.91;53.77
62833;BME280;48891;49.220;6.920;2022-09-09T11:16:29;98587.50;;;23.93;53.50
62833;BME280;48891;49.220;6.920;2022-09-09T11:19:04;98583.78;;;23.94;53.87
62833;BME280;48891;49.220;6.920;2022-09-09T11:21:42;98584.28;;;23.97;53.78
62833;BME280;48891;49.220;6.920;2022-09-09T11:24:18;98579.75;;;23.98;54.22
62833;BME280;48891;49.220;6.920;2022-09-09T11:27:36;98574.38;;;23.98;54.10
62833;BME280;48891;49.220;6.920;2022-09-09T11:35:02;98563.59;;;23.98;54.06
62833;BME280;48891;49.220;6.920;2022-09-09T11:38:09;98558.22;;;23.98;54.36
62833;BME280;48891;49.220;6.920;2022-09-09T11:40:37;98554.00;;;23.95;54.36
62833;BME280;48891;49.220;6.920;2022-09-09T11:43:11;98561.59;;;23.92;54.89
62833;BME280;48891;49.220;6.920;2022-09-09T11:45:39;98567.31;;;23.88;54.76
62833;BME280;48891;49.220;6.920;2022-09-09T11:48:05;98563.81;;;23.88;54.41
62833;BME280;48891;49.220;6.920;2022-09-09T11:50:33;98549.69;;;23.86;54.66
62833;BME280;48891;49.220;6.920;2022-09-09T11:53:14;98562.63;;;23.91;54.43
62833;BME280;48891;49.220;6.920;2022-09-09T11:55:41;98571.41;;;23.84;54.48
62833;BME280;48891;49.220;6.920;2022-09-09T11:58:16;98594.13;;;23.82;54.76
62833;BME280;48891;49.220;6.920;2022-09-09T12:00:44;98589.75;;;23.81;54.56
62833;BME280;48891;49.220;6.920;2022-09-09T12:06:29;98593.97;;;23.83;54.64
62833;BME280;48891;49.220;6.920;2022-09-09T12:08:58;98538.91;;;23.55;54.49
62833;BME280;48891;49.220;6.920;2022-09-09T12:11:31;98561.69;;;23.75;54.65
62833;BME280;48891;49.220;6.920;2022-09-09T12:13:58;98593.72;;;23.93;54.26
62833;BME280;48891;49.220;6.920;2022-09-09T12:16:35;98547.38;;;23.75;54.22
62833;BME280;48891;49.220;6.920;2022-09-09T12:19:18;98577.72;;;24.00;54.28
62833;BME280;48891;49.220;6.920;2022-09-09T12:21:49;98572.16;;;24.01;54.39
62833;BME280;48891;49.220;6.920;2022-09-09T12:24:43;98523.66;;;23.78;54.10
62833;BME280;48891;49.220;6.920;2022-09-09T12:29:58;98561.47;;;24.08;54.13
62833;BME280;48891;49.220;6.920;2022-09-09T12:32:26;98569.38;;;24.10;53.91
62833;BME280;48891;49.220;6.920;2022-09-09T12:34:55;98565.69;;;24.11;53.96
62833;BME280;48891;49.220;6.920;2022-09-09T12:37:37;98518.22;;;23.86;53.71
62833;BME280;48891;49.220;6.920;2022-09-09T12:40:19;98557.94;;;24.07;54.13
62833;BME280;48891;49.220;6.920;2022-09-09T12:42:45;98534.31;;;23.95;53.94
62833;BME280;48891;49.220;6.920;2022-09-09T12:45:19;98549.88;;;24.07;54.12
62833;BME280;48891;49.220;6.920;2022-09-09T12:47:55;98540.13;;;23.83;54.47
62833;BME280;48891;49.220;6.920;2022-09-09T12:50:23;98579.00;;;24.04;54.37
62833;BME280;48891;49.220;6.920;2022-09-09T12:52:51;98581.53;;;24.05;54.53
62833;BME280;48891;49.220;6.920;2022-09-09T12:55:18;98574.47;;;24.04;54.05
62833;BME280;48891;49.220;6.920;2022-09-09T12:57:44;98575.50;;;24.03;54.22
62833;BME280;48891;49.220;6.920;2022-09-09T13:00:18;98572.81;;;24.03;54.35
62833;BME280;48891;49.220;6.920;2022-09-09T13:05:20;98558.03;;;23.99;54.52
62833;BME280;48891;49.220;6.920;2022-09-09T13:07:46;98536.66;;;23.98;54.57
62833;BME280;48891;49.220;6.920;2022-09-09T13:10:13;98549.94;;;23.99;54.31
62833;BME280;48891;49.220;6.920;2022-09-09T13:12:40;98555.13;;;24.01;54.67
62833;BME280;48891;49.220;6.920;2022-09-09T13:15:16;98549.94;;;23.99;54.43
62833;BME280;48891;49.220;6.920;2022-09-09T13:17:49;98552.91;;;24.04;54.29
62833;BME280;48891;49.220;6.920;2022-09-09T13:20:17;98550.22;;;24.04;53.99
62833;BME280;48891;49.220;6.920;2022-09-09T13:22:43;98549.88;;;24.07;53.91
62833;BME280;48891;49.220;6.920;2022-09-09T13:27:39;98544.97;;;24.11;53.79
62833;BME280;48891;49.220;6.920;2022-09-09T13:30:22;98547.66;;;24.11;54.03
62833;BME280;48891;49.220;6.920;2022-09-09T13:32:48;98544.13;;;24.11;53.82
62833;BME280;48891;49.220;6.920;2022-09-09T13:35:24;98553.22;;;24.10;53.91
62833;BME280;48891;49.220;6.920;2022-09-09T13:37:49;98553.22;;;24.10;54.28
62833;BME280;48891;49.220;6.920;2022-09-09T13:40:20;98522.59;;;23.87;54.04
62833;BME280;48891;49.220;6.920;2022-09-09T13:42:46;98535.81;;;23.97;54.21
62833;BME280;48891;49.220;6.920;2022-09-09T13:45:17;98551.00;;;24.13;53.99
62833;BME280;48891;49.220;6.920;2022-09-09T13:47:43;98551.56;;;24.09;54.07
62833;BME280;48891;49.220;6.920;2022-09-09T13:50:28;98549.00;;;24.15;53.94
62833;BME280;48891;49.220;6.920;2022-09-09T13:52:56;98541.56;;;24.17;53.75
62833;BME280;48891;49.220;6.920;2022-09-09T13:55:23;98541.19;;;24.20;53.89
62833;BME280;48891;49.220;6.920;2022-09-09T14:00:17;98533.78;;;24.22;53.42
62833;BME280;48891;49.220;6.920;2022-09-09T14:02:42;98535.25;;;24.25;53.70
62833;BME280;48891;49.220;6.920;2022-09-09T14:05:07;98533.06;;;24.29;53.52
62833;BME280;48891;49.220;6.920;2022-09-09T14:07:32;98536.09;;;24.25;53.45
62833;BME280;48891;49.220;6.920;2022-09-09T14:09:58;98541.47;;;24.25;53.51
62833;BME280;48891;49.220;6.920;2022-09-09T14:12:23;98544.19;;;24.25;53.63
62833;BME280;48891;49.220;6.920;2022-09-09T14:14:48;98546.03;;;24.25;53.52
62833;BME280;48891;49.220;6.920;2022-09-09T14:17:14;98544.56;;;24.22;53.30
62833;BME280;48891;49.220;6.920;2022-09-09T14:19:39;98535.09;;;24.26;53.62
62833;BME280;48891;49.220;6.920;2022-09-09T14:22:04;98552.44;;;24.24;53.52
62833;BME280;48891;49.220;6.920;2022-09-09T14:24:29;98560.72;;;24.22;53.30
62833;BME280;48891;49.220;6.920;2022-09-09T14:26:55;98552.81;;;24.21;53.37
62833;BME280;48891;49.220;6.920;2022-09-09T14:29:21;98556.34;;;24.21;53.44
62833;BME280;48891;49.220;6.920;2022-09-09T14:31:46;98554.31;;;24.23;53.63
62833;BME280;48891;49.220;6.920;2022-09-09T14:34:11;98559.47;;;24.33;53.04
62833;BME280;48891;49.220;6.920;2022-09-09T14:36:37;98511.28;;;24.15;52.97
62833;BME280;48891;49.220;6.920;2022-09-09T14:39:03;98538.00;;;24.40;53.17
62833;BME280;48891;49.220;6.920;2022-09-09T14:41:29;98534.22;;;24.49;52.58
62833;BME280;48891;49.220;6.920;2022-09-09T14:43:54;98523.91;;;24.53;52.48